EWG7VN LOWW-EDDH
Flight info
| Callsign | EWG7VN |
|---|---|
| Flight time | 1h 23m |
| Altitude | 36000 |
| Route | UNGU2C/29 LANUX DCT LALUK DCT MILGU DCT SOGMA M748 RARUP RARUP6A |
| Aircraft | A319/M-SDE2E3FGIJ1RWXYZ/EB1 |
Departure
| Time | 2026-04-24 19:21 |
|---|---|
| Airport | Vienna International Airport (LOWW) |
Arrival
| Time | 2026-04-24 20:45 |
|---|---|
| Airport | Hamburg Helmut Schmidt Airport (EDDH) |
| Time | Latitude | Longitude | Altitude | Speed | Heading |
|---|---|---|---|---|---|
| 2026-04-24 18:54 | 48.11908 | 16.55704 | 609 ft | 0 kts | 25° |
| 2026-04-24 19:03 | 48.11904 | 16.55701 | 597 ft | 0 kts | 26° |
| 2026-04-24 19:05 | 48.11903 | 16.55700 | 624 ft | 2 kts | 26° |
| 2026-04-24 19:06 | 48.11880 | 16.55683 | 615 ft | 4 kts | 28° |
| 2026-04-24 19:06 | 48.11857 | 16.55663 | 619 ft | 4 kts | 37° |
| 2026-04-24 19:06 | 48.11839 | 16.55635 | 623 ft | 4 kts | 84° |
| 2026-04-24 19:06 | 48.11839 | 16.55622 | 621 ft | 0 kts | 116° |
| 2026-04-24 19:08 | 48.11839 | 16.55623 | 610 ft | 0 kts | 116° |
| 2026-04-24 19:09 | 48.11831 | 16.55646 | 624 ft | 5 kts | 116° |
| 2026-04-24 19:09 | 48.11814 | 16.55701 | 620 ft | 7 kts | 116° |
| 2026-04-24 19:09 | 48.11784 | 16.55774 | 616 ft | 9 kts | 138° |
| 2026-04-24 19:09 | 48.11714 | 16.55780 | 616 ft | 11 kts | 171° |
| 2026-04-24 19:10 | 48.11660 | 16.55889 | 613 ft | 15 kts | 117° |
| 2026-04-24 19:10 | 48.11618 | 16.56019 | 611 ft | 13 kts | 116° |
| 2026-04-24 19:10 | 48.11580 | 16.56133 | 613 ft | 13 kts | 115° |
| 2026-04-24 19:10 | 48.11534 | 16.56278 | 614 ft | 17 kts | 115° |
| 2026-04-24 19:11 | 48.11483 | 16.56435 | 620 ft | 17 kts | 116° |
| 2026-04-24 19:11 | 48.11433 | 16.56585 | 614 ft | 15 kts | 116° |
| 2026-04-24 19:11 | 48.11394 | 16.56704 | 621 ft | 10 kts | 116° |
| 2026-04-24 19:11 | 48.11365 | 16.56793 | 617 ft | 8 kts | 115° |
| 2026-04-24 19:12 | 48.11339 | 16.56875 | 615 ft | 12 kts | 116° |
| 2026-04-24 19:12 | 48.11289 | 16.57030 | 616 ft | 20 kts | 116° |
| 2026-04-24 19:12 | 48.11222 | 16.57232 | 616 ft | 23 kts | 116° |
| 2026-04-24 19:12 | 48.11164 | 16.57414 | 618 ft | 19 kts | 116° |
| 2026-04-24 19:13 | 48.11127 | 16.57528 | 610 ft | 11 kts | 117° |
| 2026-04-24 19:13 | 48.11124 | 16.57536 | 610 ft | 0 kts | 117° |
| 2026-04-24 19:15 | 48.11119 | 16.57552 | 617 ft | 4 kts | 117° |
| 2026-04-24 19:15 | 48.11101 | 16.57607 | 613 ft | 8 kts | 116° |
| 2026-04-24 19:15 | 48.11052 | 16.57652 | 620 ft | 10 kts | 183° |
| 2026-04-24 19:15 | 48.11024 | 16.57634 | 621 ft | 0 kts | 208° |
| 2026-04-24 19:19 | 48.11023 | 16.57633 | 620 ft | 2 kts | 208° |
| 2026-04-24 19:19 | 48.10985 | 16.57604 | 610 ft | 11 kts | 205° |
| 2026-04-24 19:20 | 48.10919 | 16.57536 | 610 ft | 10 kts | 250° |
| 2026-04-24 19:20 | 48.10923 | 16.57507 | 615 ft | 0 kts | 295° |
| 2026-04-24 19:20 | 48.10967 | 16.57375 | 610 ft | 43 kts | 296° |
| 2026-04-24 19:20 | 48.11199 | 16.56661 | 619 ft | 108 kts | 296° |
| 2026-04-24 19:21 | 48.11612 | 16.55402 | 636 ft | 158 kts | 296° |
| 2026-04-24 19:21 | 48.12061 | 16.53915 | 1235 ft | 157 kts | 287° |
| 2026-04-24 19:21 | 48.12018 | 16.52276 | 1855 ft | 166 kts | 253° |
| 2026-04-24 19:21 | 48.11222 | 16.50860 | 2191 ft | 195 kts | 220° |
| 2026-04-24 19:22 | 48.10443 | 16.50023 | 2397 ft | 213 kts | 219° |
| 2026-04-24 19:22 | 48.08771 | 16.48275 | 3356 ft | 223 kts | 219° |
| 2026-04-24 19:22 | 48.07634 | 16.46748 | 4264 ft | 218 kts | 238° |
| 2026-04-24 19:22 | 48.06893 | 16.44678 | 4795 ft | 237 kts | 252° |
| 2026-04-24 19:23 | 48.06205 | 16.42308 | 5396 ft | 257 kts | 251° |
| 2026-04-24 19:23 | 48.05475 | 16.39835 | 6387 ft | 261 kts | 250° |
| 2026-04-24 19:23 | 48.04727 | 16.37336 | 7451 ft | 265 kts | 250° |
| 2026-04-24 19:23 | 48.03968 | 16.34791 | 8443 ft | 271 kts | 252° |
| 2026-04-24 19:24 | 48.03582 | 16.32056 | 9280 ft | 270 kts | 275° |
| 2026-04-24 19:24 | 48.03988 | 16.29339 | 10123 ft | 269 kts | 298° |
| 2026-04-24 19:24 | 48.05115 | 16.27096 | 10730 ft | 279 kts | 320° |
| 2026-04-24 19:24 | 48.06818 | 16.25553 | 11041 ft | 301 kts | 333° |
| 2026-04-24 19:25 | 48.08752 | 16.24087 | 11640 ft | 312 kts | 333° |
| 2026-04-24 19:25 | 48.10683 | 16.22635 | 12361 ft | 317 kts | 333° |
| 2026-04-24 19:25 | 48.12668 | 16.21134 | 13105 ft | 322 kts | 333° |
| 2026-04-24 19:25 | 48.14682 | 16.19598 | 13843 ft | 327 kts | 333° |
| 2026-04-24 19:26 | 48.16719 | 16.18038 | 14499 ft | 331 kts | 333° |
| 2026-04-24 19:26 | 48.18787 | 16.16450 | 15176 ft | 334 kts | 333° |
| 2026-04-24 19:26 | 48.20863 | 16.14847 | 15852 ft | 337 kts | 333° |
| 2026-04-24 19:26 | 48.22953 | 16.13226 | 16536 ft | 340 kts | 333° |
| 2026-04-24 19:27 | 48.25066 | 16.11587 | 17222 ft | 343 kts | 333° |
| 2026-04-24 19:27 | 48.27196 | 16.09936 | 17901 ft | 346 kts | 333° |
| 2026-04-24 19:27 | 48.29346 | 16.08267 | 18543 ft | 350 kts | 333° |
| 2026-04-24 19:27 | 48.31517 | 16.06578 | 19112 ft | 353 kts | 333° |
| 2026-04-24 19:28 | 48.33709 | 16.04876 | 19680 ft | 356 kts | 333° |
| 2026-04-24 19:28 | 48.35925 | 16.03159 | 20258 ft | 360 kts | 333° |
| 2026-04-24 19:28 | 48.38162 | 16.01426 | 20829 ft | 363 kts | 333° |
| 2026-04-24 19:28 | 48.40419 | 15.99675 | 21390 ft | 367 kts | 333° |
| 2026-04-24 19:29 | 48.44996 | 15.96118 | 22502 ft | 373 kts | 333° |
| 2026-04-24 19:29 | 48.47313 | 15.94308 | 23058 ft | 376 kts | 333° |
| 2026-04-24 19:29 | 48.49650 | 15.92479 | 23600 ft | 380 kts | 333° |
| 2026-04-24 19:30 | 48.52003 | 15.90635 | 24052 ft | 383 kts | 333° |
| 2026-04-24 19:30 | 48.54373 | 15.88777 | 24508 ft | 385 kts | 333° |
| 2026-04-24 19:30 | 48.56754 | 15.86910 | 24961 ft | 387 kts | 332° |
| 2026-04-24 19:30 | 48.59165 | 15.85017 | 25422 ft | 389 kts | 332° |
| 2026-04-24 19:31 | 48.61574 | 15.83125 | 25862 ft | 392 kts | 332° |
| 2026-04-24 19:31 | 48.63966 | 15.81245 | 26298 ft | 394 kts | 332° |
| 2026-04-24 19:31 | 48.66405 | 15.79328 | 26738 ft | 396 kts | 332° |
| 2026-04-24 19:31 | 48.68856 | 15.77400 | 27173 ft | 398 kts | 332° |
| 2026-04-24 19:32 | 48.71323 | 15.75454 | 27607 ft | 401 kts | 332° |
| 2026-04-24 19:32 | 48.73801 | 15.73495 | 28039 ft | 403 kts | 332° |
| 2026-04-24 19:32 | 48.76293 | 15.71521 | 28470 ft | 405 kts | 332° |
| 2026-04-24 19:32 | 48.78797 | 15.69536 | 28906 ft | 407 kts | 332° |
| 2026-04-24 19:33 | 48.81315 | 15.67541 | 29310 ft | 410 kts | 332° |
| 2026-04-24 19:33 | 48.83847 | 15.65535 | 29719 ft | 412 kts | 332° |
| 2026-04-24 19:33 | 48.86395 | 15.63508 | 30119 ft | 415 kts | 332° |
| 2026-04-24 19:33 | 48.88957 | 15.61463 | 30458 ft | 417 kts | 331° |
| 2026-04-24 19:34 | 48.91513 | 15.59350 | 30795 ft | 418 kts | 330° |
| 2026-04-24 19:34 | 48.94051 | 15.57174 | 31132 ft | 420 kts | 329° |
| 2026-04-24 19:34 | 48.96590 | 15.54949 | 31465 ft | 421 kts | 329° |
| 2026-04-24 19:34 | 48.99139 | 15.52694 | 31791 ft | 423 kts | 329° |
| 2026-04-24 19:35 | 49.01684 | 15.50440 | 32233 ft | 421 kts | 329° |
| 2026-04-24 19:35 | 49.04213 | 15.48208 | 32711 ft | 419 kts | 329° |
| 2026-04-24 19:35 | 49.06708 | 15.46020 | 33187 ft | 417 kts | 329° |
| 2026-04-24 19:35 | 49.09224 | 15.43826 | 33676 ft | 416 kts | 329° |
| 2026-04-24 19:36 | 49.11731 | 15.41642 | 34150 ft | 414 kts | 329° |
| 2026-04-24 19:36 | 49.14231 | 15.39465 | 34575 ft | 412 kts | 329° |
| 2026-04-24 19:36 | 49.16715 | 15.37301 | 34990 ft | 411 kts | 329° |
| 2026-04-24 19:36 | 49.19189 | 15.35140 | 35393 ft | 409 kts | 329° |
| 2026-04-24 19:37 | 49.21657 | 15.32976 | 35782 ft | 408 kts | 329° |
| 2026-04-24 19:37 | 49.24119 | 15.30811 | 36046 ft | 407 kts | 329° |
| 2026-04-24 19:37 | 49.26562 | 15.28658 | 36090 ft | 404 kts | 329° |
| 2026-04-24 19:38 | 49.31410 | 15.24379 | 36094 ft | 401 kts | 329° |
| 2026-04-24 19:38 | 49.36242 | 15.20114 | 36092 ft | 400 kts | 329° |
| 2026-04-24 19:39 | 49.41068 | 15.15842 | 36095 ft | 400 kts | 328° |
| 2026-04-24 19:39 | 49.45896 | 15.11562 | 36095 ft | 400 kts | 328° |
| 2026-04-24 19:40 | 49.50685 | 15.07304 | 36095 ft | 399 kts | 328° |
| 2026-04-24 19:40 | 49.55499 | 15.03018 | 36094 ft | 399 kts | 328° |
| 2026-04-24 19:41 | 49.60302 | 14.98717 | 36092 ft | 399 kts | 328° |
| 2026-04-24 19:41 | 49.65097 | 14.94411 | 36092 ft | 398 kts | 328° |
| 2026-04-24 19:42 | 49.69896 | 14.90105 | 36096 ft | 398 kts | 328° |
| 2026-04-24 19:42 | 49.74684 | 14.85803 | 36093 ft | 398 kts | 328° |
| 2026-04-24 19:43 | 49.79468 | 14.81491 | 36098 ft | 398 kts | 328° |
| 2026-04-24 19:43 | 49.83438 | 14.77900 | 36098 ft | 398 kts | 327° |
| 2026-04-24 19:44 | 49.88218 | 14.73569 | 36099 ft | 397 kts | 327° |
| 2026-04-24 19:44 | 49.92989 | 14.69234 | 36101 ft | 397 kts | 327° |
| 2026-04-24 19:45 | 49.97710 | 14.64942 | 36105 ft | 397 kts | 327° |
| 2026-04-24 19:45 | 50.02448 | 14.60627 | 36110 ft | 397 kts | 327° |
| 2026-04-24 19:46 | 50.07220 | 14.56275 | 36111 ft | 397 kts | 327° |
| 2026-04-24 19:46 | 50.11980 | 14.51911 | 36114 ft | 396 kts | 327° |
| 2026-04-24 19:47 | 50.16731 | 14.47537 | 36113 ft | 396 kts | 327° |
| 2026-04-24 19:47 | 50.21487 | 14.43149 | 36114 ft | 396 kts | 327° |
| 2026-04-24 19:48 | 50.26236 | 14.38780 | 36113 ft | 396 kts | 326° |
| 2026-04-24 19:48 | 50.33317 | 14.32230 | 36109 ft | 395 kts | 326° |
| 2026-04-24 19:49 | 50.42793 | 14.23423 | 36105 ft | 395 kts | 326° |
| 2026-04-24 19:50 | 50.52228 | 14.14628 | 36109 ft | 395 kts | 326° |
| 2026-04-24 19:51 | 50.59335 | 14.07961 | 36103 ft | 396 kts | 326° |
| 2026-04-24 19:52 | 50.66398 | 14.01314 | 36106 ft | 395 kts | 326° |
| 2026-04-24 19:52 | 50.71125 | 13.96862 | 36119 ft | 396 kts | 325° |
| 2026-04-24 19:53 | 50.75849 | 13.92392 | 36124 ft | 395 kts | 325° |
| 2026-04-24 19:54 | 50.82877 | 13.85572 | 36123 ft | 394 kts | 323° |
| 2026-04-24 19:54 | 50.87379 | 13.80649 | 36115 ft | 393 kts | 321° |
| 2026-04-24 19:55 | 50.91092 | 13.76492 | 36118 ft | 392 kts | 321° |
| 2026-04-24 19:55 | 50.96297 | 13.70732 | 36114 ft | 392 kts | 322° |
| 2026-04-24 19:56 | 51.00793 | 13.65818 | 36111 ft | 392 kts | 322° |
| 2026-04-24 19:56 | 51.05284 | 13.60887 | 36112 ft | 392 kts | 321° |
| 2026-04-24 19:57 | 51.09768 | 13.55949 | 36114 ft | 392 kts | 321° |
| 2026-04-24 19:57 | 51.14270 | 13.51005 | 36109 ft | 392 kts | 322° |
| 2026-04-24 19:58 | 51.18779 | 13.46188 | 36113 ft | 392 kts | 322° |
| 2026-04-24 19:58 | 51.23328 | 13.41361 | 36113 ft | 392 kts | 322° |
| 2026-04-24 19:59 | 51.27870 | 13.36503 | 36114 ft | 392 kts | 322° |
| 2026-04-24 19:59 | 51.32397 | 13.31633 | 36118 ft | 392 kts | 322° |
| 2026-04-24 20:00 | 51.36942 | 13.26742 | 36118 ft | 392 kts | 322° |
| 2026-04-24 20:00 | 51.41454 | 13.21885 | 36116 ft | 392 kts | 322° |
| 2026-04-24 20:01 | 51.45980 | 13.16980 | 36117 ft | 392 kts | 321° |
| 2026-04-24 20:01 | 51.50510 | 13.12064 | 36115 ft | 393 kts | 321° |
| 2026-04-24 20:02 | 51.54276 | 13.07964 | 36118 ft | 393 kts | 321° |
| 2026-04-24 20:02 | 51.59544 | 13.02235 | 36116 ft | 393 kts | 321° |
| 2026-04-24 20:03 | 51.64073 | 12.97292 | 36114 ft | 393 kts | 321° |
| 2026-04-24 20:03 | 51.68591 | 12.92347 | 36118 ft | 393 kts | 321° |
| 2026-04-24 20:04 | 51.73118 | 12.87377 | 36125 ft | 393 kts | 321° |
| 2026-04-24 20:04 | 51.77611 | 12.82435 | 36124 ft | 393 kts | 321° |
| 2026-04-24 20:05 | 51.82132 | 12.77449 | 36127 ft | 393 kts | 321° |
| 2026-04-24 20:05 | 51.86658 | 12.72433 | 36123 ft | 393 kts | 321° |
| 2026-04-24 20:06 | 51.91180 | 12.67412 | 36127 ft | 394 kts | 321° |
| 2026-04-24 20:06 | 51.95675 | 12.62415 | 36126 ft | 394 kts | 321° |
| 2026-04-24 20:07 | 51.99458 | 12.58205 | 36123 ft | 394 kts | 321° |
| 2026-04-24 20:07 | 52.04710 | 12.52349 | 36126 ft | 394 kts | 321° |
| 2026-04-24 20:08 | 52.09232 | 12.47286 | 36127 ft | 394 kts | 321° |
| 2026-04-24 20:08 | 52.13749 | 12.42207 | 36125 ft | 395 kts | 321° |
| 2026-04-24 20:09 | 52.18270 | 12.37119 | 36121 ft | 395 kts | 321° |
| 2026-04-24 20:09 | 52.22794 | 12.32014 | 36123 ft | 395 kts | 321° |
| 2026-04-24 20:10 | 52.27285 | 12.26930 | 36118 ft | 395 kts | 321° |
| 2026-04-24 20:10 | 52.31807 | 12.21795 | 36119 ft | 395 kts | 321° |
| 2026-04-24 20:11 | 52.36323 | 12.16663 | 36118 ft | 395 kts | 321° |
| 2026-04-24 20:11 | 52.40845 | 12.11512 | 36120 ft | 395 kts | 321° |
| 2026-04-24 20:12 | 52.45366 | 12.06343 | 35853 ft | 396 kts | 321° |
| 2026-04-24 20:12 | 52.47604 | 12.03786 | 35606 ft | 396 kts | 321° |
| 2026-04-24 20:12 | 52.49874 | 12.01185 | 35356 ft | 396 kts | 321° |
| 2026-04-24 20:12 | 52.52140 | 11.98580 | 35110 ft | 397 kts | 321° |
| 2026-04-24 20:13 | 52.54400 | 11.95981 | 34866 ft | 394 kts | 321° |
| 2026-04-24 20:13 | 52.56638 | 11.93408 | 34442 ft | 391 kts | 320° |
| 2026-04-24 20:13 | 52.58856 | 11.90856 | 33997 ft | 388 kts | 320° |
| 2026-04-24 20:13 | 52.61066 | 11.88309 | 33537 ft | 385 kts | 320° |
| 2026-04-24 20:14 | 52.63245 | 11.85793 | 33108 ft | 380 kts | 320° |
| 2026-04-24 20:14 | 52.65396 | 11.83306 | 32677 ft | 376 kts | 320° |
| 2026-04-24 20:14 | 52.67500 | 11.80868 | 32253 ft | 372 kts | 320° |
| 2026-04-24 20:14 | 52.69610 | 11.78422 | 31822 ft | 369 kts | 320° |
| 2026-04-24 20:15 | 52.71700 | 11.75993 | 31410 ft | 365 kts | 320° |
| 2026-04-24 20:15 | 52.73774 | 11.73581 | 30981 ft | 363 kts | 320° |
| 2026-04-24 20:15 | 52.75831 | 11.71188 | 30571 ft | 360 kts | 320° |
| 2026-04-24 20:15 | 52.77875 | 11.68806 | 30151 ft | 358 kts | 320° |
| 2026-04-24 20:16 | 52.79903 | 11.66439 | 29710 ft | 355 kts | 320° |
| 2026-04-24 20:16 | 52.81916 | 11.64090 | 29311 ft | 352 kts | 320° |
| 2026-04-24 20:16 | 52.83889 | 11.61788 | 28920 ft | 349 kts | 320° |
| 2026-04-24 20:16 | 52.85868 | 11.59473 | 28542 ft | 346 kts | 320° |
| 2026-04-24 20:17 | 52.87827 | 11.57177 | 28163 ft | 343 kts | 320° |
| 2026-04-24 20:17 | 52.91690 | 11.52643 | 27439 ft | 337 kts | 320° |
| 2026-04-24 20:17 | 52.93591 | 11.50408 | 27088 ft | 333 kts | 320° |
| 2026-04-24 20:18 | 52.94841 | 11.48938 | 26855 ft | 331 kts | 320° |
| 2026-04-24 20:18 | 52.97335 | 11.45998 | 26409 ft | 328 kts | 320° |
| 2026-04-24 20:18 | 52.99191 | 11.43807 | 26072 ft | 327 kts | 320° |
| 2026-04-24 20:18 | 53.01044 | 11.41613 | 25726 ft | 325 kts | 321° |
| 2026-04-24 20:19 | 53.02882 | 11.39433 | 25380 ft | 324 kts | 321° |
| 2026-04-24 20:19 | 53.04715 | 11.37259 | 25037 ft | 322 kts | 321° |
| 2026-04-24 20:19 | 53.06520 | 11.35120 | 24686 ft | 321 kts | 321° |
| 2026-04-24 20:19 | 53.08340 | 11.32966 | 24333 ft | 320 kts | 321° |
| 2026-04-24 20:20 | 53.10153 | 11.30816 | 23968 ft | 319 kts | 321° |
| 2026-04-24 20:20 | 53.11958 | 11.28670 | 23549 ft | 318 kts | 321° |
| 2026-04-24 20:20 | 53.13759 | 11.26552 | 23121 ft | 316 kts | 322° |
| 2026-04-24 20:20 | 53.15565 | 11.24468 | 22715 ft | 315 kts | 322° |
| 2026-04-24 20:21 | 53.17370 | 11.22407 | 22308 ft | 313 kts | 322° |
| 2026-04-24 20:21 | 53.19161 | 11.20357 | 21895 ft | 311 kts | 322° |
| 2026-04-24 20:21 | 53.20941 | 11.18312 | 21485 ft | 309 kts | 322° |
| 2026-04-24 20:21 | 53.22689 | 11.16292 | 21081 ft | 308 kts | 322° |
| 2026-04-24 20:22 | 53.24444 | 11.14259 | 20677 ft | 307 kts | 323° |
| 2026-04-24 20:22 | 53.26201 | 11.12223 | 20256 ft | 306 kts | 323° |
| 2026-04-24 20:22 | 53.27951 | 11.10193 | 19714 ft | 309 kts | 323° |
| 2026-04-24 20:22 | 53.29755 | 11.08099 | 18930 ft | 320 kts | 323° |
| 2026-04-24 20:23 | 53.31601 | 11.05957 | 18384 ft | 323 kts | 323° |
| 2026-04-24 20:23 | 53.33419 | 11.03850 | 17938 ft | 319 kts | 323° |
| 2026-04-24 20:23 | 53.35234 | 11.01744 | 17537 ft | 315 kts | 323° |
| 2026-04-24 20:23 | 53.37023 | 10.99662 | 17142 ft | 310 kts | 323° |
| 2026-04-24 20:24 | 53.38194 | 10.98295 | 16886 ft | 307 kts | 323° |
| 2026-04-24 20:24 | 53.39935 | 10.96255 | 16509 ft | 304 kts | 323° |
| 2026-04-24 20:24 | 53.41658 | 10.94234 | 16122 ft | 300 kts | 323° |
| 2026-04-24 20:24 | 53.43913 | 10.91589 | 15626 ft | 296 kts | 323° |
| 2026-04-24 20:25 | 53.45043 | 10.90233 | 15377 ft | 295 kts | 320° |
| 2026-04-24 20:25 | 53.46336 | 10.87583 | 15068 ft | 296 kts | 296° |
| 2026-04-24 20:25 | 53.46809 | 10.84258 | 14803 ft | 301 kts | 273° |
| 2026-04-24 20:25 | 53.46589 | 10.80738 | 14538 ft | 304 kts | 265° |
| 2026-04-24 20:26 | 53.46257 | 10.77235 | 14278 ft | 303 kts | 265° |
| 2026-04-24 20:26 | 53.45915 | 10.73743 | 14015 ft | 302 kts | 264° |
| 2026-04-24 20:26 | 53.45568 | 10.70269 | 13738 ft | 301 kts | 264° |
| 2026-04-24 20:26 | 53.45218 | 10.66808 | 13446 ft | 300 kts | 264° |
| 2026-04-24 20:27 | 53.44871 | 10.63401 | 13155 ft | 299 kts | 264° |
| 2026-04-24 20:27 | 53.44518 | 10.59963 | 12873 ft | 298 kts | 264° |
| 2026-04-24 20:27 | 53.44163 | 10.56528 | 12593 ft | 298 kts | 264° |
| 2026-04-24 20:27 | 53.43807 | 10.53112 | 12307 ft | 297 kts | 264° |
| 2026-04-24 20:28 | 53.43450 | 10.49699 | 12029 ft | 296 kts | 264° |
| 2026-04-24 20:28 | 53.43094 | 10.46303 | 11754 ft | 295 kts | 264° |
| 2026-04-24 20:28 | 53.42740 | 10.42948 | 11484 ft | 294 kts | 264° |
| 2026-04-24 20:28 | 53.42380 | 10.39567 | 11211 ft | 294 kts | 264° |
| 2026-04-24 20:29 | 53.42019 | 10.36214 | 10943 ft | 289 kts | 264° |
| 2026-04-24 20:29 | 53.41663 | 10.32960 | 10666 ft | 278 kts | 264° |
| 2026-04-24 20:29 | 53.41313 | 10.29831 | 10398 ft | 268 kts | 264° |
| 2026-04-24 20:29 | 53.40967 | 10.26813 | 10136 ft | 260 kts | 264° |
| 2026-04-24 20:30 | 53.40622 | 10.23861 | 9864 ft | 255 kts | 264° |
| 2026-04-24 20:30 | 53.40287 | 10.21019 | 9575 ft | 247 kts | 264° |
| 2026-04-24 20:30 | 53.40035 | 10.18196 | 9286 ft | 240 kts | 277° |
| 2026-04-24 20:30 | 53.40510 | 10.15633 | 9001 ft | 228 kts | 307° |
| 2026-04-24 20:31 | 53.41708 | 10.13992 | 8724 ft | 225 kts | 338° |
| 2026-04-24 20:31 | 53.43259 | 10.13764 | 8445 ft | 230 kts | 9° |
| 2026-04-24 20:31 | 53.44704 | 10.14982 | 8153 ft | 238 kts | 31° |
| 2026-04-24 20:31 | 53.46015 | 10.16715 | 7878 ft | 239 kts | 34° |
| 2026-04-24 20:32 | 53.47302 | 10.18483 | 7607 ft | 239 kts | 34° |
| 2026-04-24 20:32 | 53.48586 | 10.20254 | 7335 ft | 238 kts | 34° |
| 2026-04-24 20:32 | 53.49865 | 10.22027 | 7071 ft | 238 kts | 34° |
| 2026-04-24 20:32 | 53.51121 | 10.23771 | 6806 ft | 237 kts | 34° |
| 2026-04-24 20:33 | 53.52394 | 10.25538 | 6543 ft | 236 kts | 34° |
| 2026-04-24 20:33 | 53.53660 | 10.27290 | 6250 ft | 235 kts | 34° |
| 2026-04-24 20:33 | 53.54919 | 10.29036 | 5978 ft | 235 kts | 34° |
| 2026-04-24 20:33 | 53.56169 | 10.30783 | 5701 ft | 233 kts | 34° |
| 2026-04-24 20:34 | 53.57412 | 10.32527 | 5422 ft | 232 kts | 34° |
| 2026-04-24 20:34 | 53.58650 | 10.34265 | 5148 ft | 231 kts | 34° |
| 2026-04-24 20:34 | 53.59879 | 10.36002 | 5010 ft | 231 kts | 34° |
| 2026-04-24 20:34 | 53.61103 | 10.37742 | 5003 ft | 229 kts | 34° |
| 2026-04-24 20:35 | 53.62322 | 10.39472 | 5004 ft | 230 kts | 34° |
| 2026-04-24 20:35 | 53.63546 | 10.41209 | 4992 ft | 230 kts | 34° |
| 2026-04-24 20:35 | 53.64841 | 10.42756 | 4993 ft | 226 kts | 22° |
| 2026-04-24 20:35 | 53.66238 | 10.43971 | 4990 ft | 225 kts | 21° |
| 2026-04-24 20:36 | 53.67631 | 10.45172 | 4988 ft | 225 kts | 21° |
| 2026-04-24 20:36 | 53.69032 | 10.46372 | 4987 ft | 226 kts | 21° |
| 2026-04-24 20:36 | 53.70432 | 10.47571 | 4986 ft | 225 kts | 21° |
| 2026-04-24 20:36 | 53.71828 | 10.48767 | 4986 ft | 225 kts | 21° |
| 2026-04-24 20:37 | 53.73225 | 10.49969 | 4983 ft | 226 kts | 21° |
| 2026-04-24 20:37 | 53.74661 | 10.50973 | 4978 ft | 220 kts | 5° |
| 2026-04-24 20:37 | 53.76153 | 10.50715 | 4702 ft | 215 kts | 334° |
| 2026-04-24 20:37 | 53.77246 | 10.49084 | 4423 ft | 213 kts | 301° |
| 2026-04-24 20:38 | 53.77568 | 10.46652 | 4136 ft | 219 kts | 271° |
| 2026-04-24 20:38 | 53.77363 | 10.44075 | 3859 ft | 222 kts | 265° |
| 2026-04-24 20:38 | 53.77084 | 10.41512 | 3582 ft | 221 kts | 265° |
| 2026-04-24 20:38 | 53.76787 | 10.38961 | 3306 ft | 221 kts | 265° |
| 2026-04-24 20:39 | 53.76481 | 10.36418 | 3055 ft | 221 kts | 264° |
| 2026-04-24 20:39 | 53.76173 | 10.33882 | 2983 ft | 220 kts | 264° |
| 2026-04-24 20:39 | 53.75873 | 10.31337 | 2998 ft | 221 kts | 264° |
| 2026-04-24 20:39 | 53.75572 | 10.28811 | 2998 ft | 215 kts | 264° |
| 2026-04-24 20:40 | 53.75273 | 10.26421 | 2998 ft | 203 kts | 264° |
| 2026-04-24 20:40 | 53.74977 | 10.24109 | 3006 ft | 200 kts | 264° |
| 2026-04-24 20:40 | 53.74400 | 10.21941 | 3005 ft | 210 kts | 238° |
| 2026-04-24 20:40 | 53.73473 | 10.20048 | 3003 ft | 203 kts | 237° |
| 2026-04-24 20:41 | 53.72581 | 10.18245 | 2866 ft | 197 kts | 237° |
| 2026-04-24 20:41 | 53.71716 | 10.16483 | 2639 ft | 193 kts | 237° |
| 2026-04-24 20:41 | 53.70864 | 10.14746 | 2386 ft | 190 kts | 237° |
| 2026-04-24 20:41 | 53.70026 | 10.13036 | 2131 ft | 187 kts | 236° |
| 2026-04-24 20:42 | 53.69217 | 10.11390 | 1918 ft | 175 kts | 236° |
| 2026-04-24 20:42 | 53.68453 | 10.09836 | 1649 ft | 170 kts | 237° |
| 2026-04-24 20:42 | 53.67743 | 10.08396 | 1406 ft | 148 kts | 236° |
| 2026-04-24 20:42 | 53.67128 | 10.07147 | 1206 ft | 132 kts | 238° |
| 2026-04-24 20:43 | 53.66557 | 10.05981 | 1032 ft | 126 kts | 238° |
| 2026-04-24 20:43 | 53.66007 | 10.04861 | 843 ft | 123 kts | 237° |
| 2026-04-24 20:43 | 53.65478 | 10.03785 | 676 ft | 120 kts | 237° |
| 2026-04-24 20:43 | 53.64945 | 10.02699 | 514 ft | 119 kts | 235° |
| 2026-04-24 20:44 | 53.64420 | 10.01608 | 337 ft | 121 kts | 234° |
| 2026-04-24 20:44 | 53.63872 | 10.00515 | 170 ft | 122 kts | 234° |
| 2026-04-24 20:44 | 53.63345 | 9.99441 | 49 ft | 109 kts | 231° |
| 2026-04-24 20:44 | 53.62950 | 9.98644 | 45 ft | 54 kts | 229° |
| 2026-04-24 20:45 | 53.62754 | 9.98474 | 45 ft | 16 kts | 185° |
| 2026-04-24 20:45 | 53.62745 | 9.98473 | 45 ft | 0 kts | 183° |
| 2026-04-24 20:45 | 53.62709 | 9.98489 | 46 ft | 12 kts | 144° |
| 2026-04-24 20:46 | 53.62739 | 9.98653 | 47 ft | 19 kts | 50° |
| 2026-04-24 20:46 | 53.62829 | 9.98834 | 47 ft | 21 kts | 50° |
| 2026-04-24 20:46 | 53.62923 | 9.99023 | 47 ft | 22 kts | 50° |
| 2026-04-24 20:46 | 53.63003 | 9.99185 | 47 ft | 4 kts | 50° |
| 2026-04-24 20:47 | 53.63004 | 9.99188 | 47 ft | 0 kts | 51° |
| 2026-04-24 20:48 | 53.63014 | 9.99208 | 47 ft | 5 kts | 51° |
| 2026-04-24 20:48 | 53.63052 | 9.99291 | 47 ft | 13 kts | 53° |
| 2026-04-24 20:48 | 53.63120 | 9.99456 | 46 ft | 20 kts | 56° |
| 2026-04-24 20:49 | 53.63206 | 9.99639 | 48 ft | 19 kts | 50° |
| 2026-04-24 20:49 | 53.63295 | 9.99797 | 48 ft | 19 kts | 48° |
| 2026-04-24 20:49 | 53.63377 | 9.99962 | 48 ft | 18 kts | 50° |
| 2026-04-24 20:49 | 53.63430 | 10.00102 | 45 ft | 12 kts | 87° |
| 2026-04-24 20:50 | 53.63387 | 10.00219 | 48 ft | 12 kts | 148° |
| 2026-04-24 20:50 | 53.63299 | 10.00236 | 48 ft | 13 kts | 176° |
| 2026-04-24 20:50 | 53.63245 | 10.00264 | 47 ft | 5 kts | 116° |
| 2026-04-24 20:50 | 53.63244 | 10.00333 | 48 ft | 4 kts | 86° |
| 2026-04-24 20:51 | 53.63245 | 10.00355 | 48 ft | 0 kts | 86° |